Time,TemperatureF,DewpointF,PressureIn,WindDirection,WindDirectionDegrees,WindSpeedMPH,WindSpeedGustMPH,Humidity,HourlyPrecipIn,Conditions,Clouds,dailyrainin,SoftwareType,DateUTC
2013-06-28 00:11:00,70.0,50.0,-100.00,SW,217,5.0,8.0,50,-99.99,,,-99.99,,2013-06-28 07:11:00,
2013-06-28 00:22:00,70.0,50.0,-100.00,SW,217,5.0,8.0,50,-99.99,,,-99.99,,2013-06-28 07:22:00,
2013-06-28 00:42:00,71.0,50.0,-100.00,WSW,245,6.0,10.0,48,-99.99,,,-99.99,,2013-06-28 07:42:00,
2013-06-28 01:11:00,73.0,50.0,-100.00,West,265,14.0,21.0,45,-99.99,,,-99.99,,2013-06-28 08:11:00,
2013-06-28 01:21:00,73.0,50.0,-100.00,West,267,13.0,19.0,44,-99.99,,,-99.99,,2013-06-28 08:21:00,
2013-06-28 01:43:00,73.0,48.0,-100.00,West,263,11.0,18.0,41,-99.99,,,-99.99,,2013-06-28 08:43:00,
2013-06-28 02:11:00,72.0,46.0,-100.00,West,269,8.0,13.0,40,-99.99,,,-99.99,,2013-06-28 09:11:00,
2013-06-28 02:22:00,73.0,47.0,-100.00,West,268,10.0,15.0,39,-99.99,,,-99.99,,2013-06-28 09:22:00,
2013-06-28 03:11:00,73.0,40.0,-100.00,SW,224,2.0,6.0,30,-99.99,,,-99.99,,2013-06-28 10:11:00,
2013-06-28 03:22:00,72.0,41.0,-100.00,SE,137,4.0,5.0,33,-99.99,,,-99.99,,2013-06-28 10:22:00,
2013-06-28 03:42:00,71.0,41.0,-100.00,South,185,2.0,4.0,34,-99.99,,,-99.99,,2013-06-28 10:42:00,
2013-06-28 04:11:00,72.0,41.0,-100.00,West,263,8.0,14.0,32,-99.99,,,-99.99,,2013-06-28 11:11:00,
2013-06-28 04:21:00,72.0,41.0,-100.00,West,262,9.0,13.0,32,-99.99,,,-99.99,,2013-06-28 11:21:00,
2013-06-28 04:42:00,72.0,40.0,-100.00,West,263,7.0,11.0,31,-99.99,,,-99.99,,2013-06-28 11:42:00,
2013-06-28 05:22:00,72.0,41.0,-100.00,West,266,4.0,9.0,32,-99.99,,,-99.99,,2013-06-28 12:22:00,
2013-06-28 05:43:00,71.0,40.0,-100.00,SE,133,3.0,4.0,33,-99.99,,,-99.99,,2013-06-28 12:43:00,
2013-06-28 06:11:00,72.0,41.0,-100.00,SE,142,2.0,4.0,32,-99.99,,,-99.99,,2013-06-28 13:11:00,
2013-06-28 06:43:00,71.0,42.0,-100.00,ENE,69,3.0,5.0,35,-99.99,,,-99.99,,2013-06-28 13:43:00,
2013-06-28 06:53:00,71.0,42.0,-100.00,ENE,69,3.0,5.0,35,-99.99,,,-99.99,,2013-06-28 13:53:00,
2013-06-28 08:11:00,79.0,39.0,-100.00,WSW,255,8.0,14.0,24,-99.99,,,-99.99,,2013-06-28 15:11:00,
2013-06-28 09:11:00,86.0,36.0,-100.00,WSW,245,5.0,9.0,17,-99.99,,,-99.99,,2013-06-28 16:11:00,
2013-06-28 09:24:00,86.0,35.0,-100.00,WSW,240,5.0,10.0,16,-99.99,,,-99.99,,2013-06-28 16:24:00,
2013-06-28 10:11:00,88.0,33.0,-100.00,West,271,11.0,15.0,14,-99.99,,,-99.99,,2013-06-28 17:11:00,
2013-06-28 10:22:00,88.0,35.0,-100.00,West,268,11.0,16.0,15,-99.99,,,-99.99,,2013-06-28 17:22:00,
2013-06-28 11:22:00,91.0,37.0,-100.00,West,265,12.0,20.0,15,-99.99,,,-99.99,,2013-06-28 18:22:00,
2013-06-28 11:33:00,92.0,38.0,-100.00,West,261,12.0,17.0,15,-99.99,,,-99.99,,2013-06-28 18:33:00,
2013-06-28 11:43:00,92.0,36.0,-100.00,West,271,11.0,17.0,14,-99.99,,,-99.99,,2013-06-28 18:43:00,
2013-06-28 12:11:00,94.0,36.0,-100.00,West,268,12.0,19.0,13,-99.99,,,-99.99,,2013-06-28 19:11:00,
2013-06-28 12:22:00,94.0,34.0,-100.00,WSW,253,12.0,21.0,12,-99.99,,,-99.99,,2013-06-28 19:22:00,
2013-06-28 12:43:00,95.0,34.0,-100.00,West,260,13.0,21.0,12,-99.99,,,-99.99,,2013-06-28 19:43:00,
2013-06-28 13:43:00,96.0,37.0,-100.00,WSW,257,18.0,28.0,13,-99.99,,,-99.99,,2013-06-28 20:43:00,
2013-06-28 13:52:00,96.0,37.0,-100.00,WSW,257,18.0,28.0,13,-99.99,,,-99.99,,2013-06-28 20:52:00,
2013-06-28 14:11:00,95.0,38.0,-100.00,West,261,18.0,28.0,14,-99.99,,,-99.99,,2013-06-28 21:11:00,
2013-06-28 14:23:00,95.0,36.0,-100.00,WSW,258,17.0,25.0,13,-99.99,,,-99.99,,2013-06-28 21:23:00,
2013-06-28 15:01:00,97.0,34.0,-100.00,West,271,16.0,24.0,11,-99.99,,,-99.99,,2013-06-28 22:01:00,
2013-06-28 15:11:00,96.0,33.0,-100.00,West,271,17.0,25.0,11,-99.99,,,-99.99,,2013-06-28 22:11:00,
2013-06-28 15:22:00,96.0,33.0,-100.00,West,271,17.0,25.0,11,-99.99,,,-99.99,,2013-06-28 22:22:00,
2013-06-28 15:33:00,96.0,33.0,-100.00,West,265,16.0,24.0,11,-99.99,,,-99.99,,2013-06-28 22:33:00,
2013-06-28 15:42:00,96.0,31.0,-100.00,WSW,257,17.0,24.0,10,-99.99,,,-99.99,,2013-06-28 22:42:00,
2013-06-28 16:11:00,96.0,33.0,-100.00,WSW,254,17.0,26.0,11,-99.99,,,-99.99,,2013-06-28 23:11:00,
2013-06-28 16:23:00,96.0,35.0,-100.00,WSW,255,17.0,29.0,12,-99.99,,,-99.99,,2013-06-28 23:23:00,
2013-06-28 16:33:00,95.0,34.0,-100.00,WSW,254,20.0,27.0,12,-99.99,,,-99.99,,2013-06-28 23:33:00,
2013-06-28 16:43:00,95.0,34.0,-100.00,West,261,18.0,26.0,12,-99.99,,,-99.99,,2013-06-28 23:43:00,
2013-06-28 16:53:00,94.0,34.0,-100.00,WSW,250,22.0,30.0,12,-99.99,,,-99.99,,2013-06-28 23:53:00,
2013-06-28 17:01:00,94.0,36.0,-100.00,West,259,19.0,29.0,13,-99.99,,,-99.99,,2013-06-29 00:01:00,
2013-06-28 17:11:00,94.0,36.0,-100.00,West,259,19.0,29.0,13,-99.99,,,-99.99,,2013-06-29 00:11:00,
2013-06-28 17:22:00,94.0,36.0,-100.00,West,261,20.0,28.0,13,-99.99,,,-99.99,,2013-06-29 00:22:00,
2013-06-28 17:33:00,93.0,35.0,-100.00,West,269,21.0,28.0,13,-99.99,,,-99.99,,2013-06-29 00:33:00,
2013-06-28 17:52:00,92.0,36.0,-100.00,West,267,20.0,30.0,14,-99.99,,,-99.99,,2013-06-29 00:52:00,
2013-06-28 18:11:00,91.0,39.0,-100.00,West,265,20.0,30.0,16,-99.99,,,-99.99,,2013-06-29 01:11:00,
2013-06-28 18:22:00,91.0,39.0,-100.00,West,262,19.0,30.0,16,-99.99,,,-99.99,,2013-06-29 01:22:00,
2013-06-28 18:31:00,90.0,39.0,-100.00,West,263,19.0,30.0,17,-99.99,,,-99.99,,2013-06-29 01:31:00,
2013-06-28 18:42:00,90.0,41.0,-100.00,West,270,20.0,28.0,18,-99.99,,,-99.99,,2013-06-29 01:42:00,
2013-06-28 18:51:00,89.0,41.0,-100.00,West,268,20.0,29.0,19,-99.99,,,-99.99,,2013-06-29 01:51:00,
2013-06-28 19:10:00,88.0,43.0,-100.00,West,268,17.0,26.0,21,-99.99,,,-99.99,,2013-06-29 02:10:00,
2013-06-28 19:21:00,88.0,43.0,-100.00,West,263,16.0,22.0,21,-99.99,,,-99.99,,2013-06-29 02:21:00,
2013-06-28 19:31:00,87.0,44.0,-100.00,West,263,17.0,23.0,22,-99.99,,,-99.99,,2013-06-29 02:31:00,
2013-06-28 19:41:00,86.0,45.0,-100.00,West,262,16.0,24.0,24,-99.99,,,-99.99,,2013-06-29 02:41:00,
2013-06-28 19:51:00,85.0,45.0,-100.00,West,261,17.0,23.0,25,-99.99,,,-99.99,,2013-06-29 02:51:00,
2013-06-28 20:11:00,83.0,47.0,-100.00,West,259,17.0,22.0,28,-99.99,,,-99.99,,2013-06-29 03:11:00,
2013-06-28 20:21:00,83.0,47.0,-100.00,WSW,257,17.0,23.0,29,-99.99,,,-99.99,,2013-06-29 03:21:00,
2013-06-28 20:31:00,82.0,47.0,-100.00,WSW,256,17.0,24.0,30,-99.99,,,-99.99,,2013-06-29 03:31:00,
2013-06-28 20:51:00,80.0,47.0,-100.00,WSW,255,18.0,23.0,32,-99.99,,,-99.99,,2013-06-29 03:51:00,
2013-06-28 21:01:00,80.0,47.0,-100.00,WSW,256,16.0,21.0,32,-99.99,,,-99.99,,2013-06-29 04:01:00,
2013-06-28 21:10:00,80.0,47.0,-100.00,WSW,258,15.0,21.0,32,-99.99,,,-99.99,,2013-06-29 04:10:00,
2013-06-28 21:22:00,79.0,47.0,-100.00,WSW,258,16.0,21.0,33,-99.99,,,-99.99,,2013-06-29 04:22:00,
2013-06-28 21:31:00,78.0,48.0,-100.00,WSW,258,16.0,23.0,35,-99.99,,,-99.99,,2013-06-29 04:31:00,
2013-06-28 21:41:00,77.0,49.0,-100.00,West,259,16.0,23.0,37,-99.99,,,-99.99,,2013-06-29 04:41:00,
2013-06-28 21:51:00,77.0,49.0,-100.00,West,262,15.0,20.0,38,-99.99,,,-99.99,,2013-06-29 04:51:00,
2013-06-28 22:10:00,76.0,49.0,-100.00,West,263,15.0,21.0,39,-99.99,,,-99.99,,2013-06-29 05:10:00,
2013-06-28 22:21:00,75.0,49.0,-100.00,West,264,15.0,19.0,40,-99.99,,,-99.99,,2013-06-29 05:21:00,
2013-06-28 22:51:00,76.0,47.0,-100.00,West,262,14.0,18.0,36,-99.99,,,-99.99,,2013-06-29 05:51:00,
2013-06-28 23:11:00,76.0,46.0,-100.00,West,259,12.0,16.0,34,-99.99,,,-99.99,,2013-06-29 06:11:00,
2013-06-28 23:22:00,77.0,44.0,-100.00,West,260,11.0,15.0,31,-99.99,,,-99.99,,2013-06-29 06:22:00,
2013-06-28 23:43:00,77.0,41.0,-100.00,WSW,257,11.0,15.0,28,-99.99,,,-99.99,,2013-06-29 06:43:00,